Time;durP1;ratioP1;P1;durP2;ratioP2;P2;SDS_P1;SDS_P2;PMS_P1;PMS_P2;Temp;Humidity;BMP_temperature;BMP_pressure;BME280_temperature;BME280_humidity;BME280_pressure;Samples;Min_cycle;Max_cycle;Signal;HPM_P1;HPM_P2
2023/06/20 00:00:18;;;;;;;16.25;8.15;;;19.20;99.90;;;;;;4915244;29;20044;-76
2023/06/20 00:03:33;;;;;;;16.23;9.57;;;19.10;99.90;;;;;;4832051;29;20091;-76
2023/06/20 00:06:04;;;;;;;15.80;8.85;;;19.00;99.90;;;;;;4828403;29;20053;-77
2023/06/20 00:09:14;;;;;;;14.50;9.20;;;19.00;99.90;;;;;;4821397;29;20054;-76
2023/06/20 00:11:41;;;;;;;16.13;9.35;;;19.10;99.90;;;;;;4841564;29;20515;-76
2023/06/20 00:14:13;;;;;;;19.10;9.63;;;19.00;99.90;;;;;;4811815;29;20050;-77
2023/06/20 00:20:41;;;;;;;14.57;9.68;;;19.00;99.90;;;;;;4901240;29;20064;-75
2023/06/20 00:23:10;;;;;;;14.55;9.27;;;18.90;99.90;;;;;;4899352;29;20420;-75
2023/06/20 00:25:38;;;;;;;18.33;9.63;;;19.00;99.90;;;;;;4875568;29;20064;-75
2023/06/20 00:29:04;;;;;;;;;;;;;;;;;;;;;
2023/06/20 00:34:23;;;;;;;17.45;9.43;;;18.90;99.90;;;;;;5509989;23;20019;-76
2023/06/20 00:36:50;;;;;;;15.35;9.27;;;18.80;99.90;;;;;;4895473;29;20051;-77
2023/06/20 00:39:23;;;;;;;18.42;8.88;;;18.80;99.90;;;;;;4931783;29;20042;-77
2023/06/20 00:41:51;;;;;;;14.55;9.68;;;18.80;99.90;;;;;;4918178;29;20063;-77
2023/06/20 00:47:19;;;;;;;14.27;8.80;;;18.70;99.90;;;;;;4876896;27;20043;-76
2023/06/20 00:53:47;;;;;;;16.95;11.18;;;18.60;99.90;;;;;;5145985;23;20052;-77
2023/06/20 00:56:15;;;;;;;13.60;8.88;;;18.40;99.90;;;;;;4930684;29;20064;-77
2023/06/20 00:59:39;;;;;;;14.70;9.95;;;18.30;99.90;;;;;;4945868;29;20138;-75
2023/06/20 01:02:06;;;;;;;;;;;18.40;99.90;;;;;;4942805;28;20053;-75
2023/06/20 01:04:33;;;;;;;14.10;9.32;;;18.60;99.90;;;;;;4940311;29;20385;-76
2023/06/20 01:07:18;;;;;;;16.42;9.32;;;18.60;99.90;;;;;;4938423;28;20449;-76
2023/06/20 01:10:00;;;;;;;13.07;9.25;;;18.40;99.90;;;;;;4955752;28;20425;-73
2023/06/20 01:12:54;;;;;;;15.40;9.43;;;18.30;99.90;;;;;;4951549;28;20094;-75
2023/06/20 01:15:33;;;;;;;14.02;8.73;;;18.30;99.90;;;;;;4968249;28;20636;-76
2023/06/20 01:18:32;;;;;;;14.77;8.00;;;18.20;99.90;;;;;;4932197;29;20047;-76
2023/06/20 01:21:09;;;;;;;13.52;9.20;;;18.30;99.90;;;;;;4945171;28;20442;-75
2023/06/20 01:23:43;;;;;;;15.27;9.20;;;18.50;99.90;;;;;;4934609;29;20082;-76
2023/06/20 01:26:23;;;;;;;15.15;9.40;;;18.60;99.90;;;;;;4918679;29;20398;-76
2023/06/20 01:29:04;;;;;;;12.45;9.05;;;18.60;99.90;;;;;;4908518;29;20413;-76
2023/06/20 01:31:36;;;;;;;11.60;8.55;;;18.30;99.90;;;;;;4935060;29;20471;-75
2023/06/20 01:34:11;;;;;;;14.68;9.13;;;18.00;99.90;;;;;;4903831;29;20055;-76
2023/06/20 01:36:42;;;;;;;13.05;8.70;;;18.00;99.90;;;;;;4903813;29;20052;-76
2023/06/20 01:39:21;;;;;;;14.00;9.20;;;17.80;99.90;;;;;;4935073;29;20044;-75
2023/06/20 01:41:50;;;;;;;13.48;9.55;;;17.90;99.90;;;;;;4925320;29;20617;-76
2023/06/20 01:44:19;;;;;;;11.45;8.68;;;17.90;99.90;;;;;;4935663;29;20052;-76
2023/06/20 01:46:51;;;;;;;14.05;9.40;;;17.90;99.90;;;;;;4930924;29;20043;-77
2023/06/20 01:49:21;;;;;;;13.25;8.80;;;17.90;99.90;;;;;;4916005;29;20047;-75
2023/06/20 01:51:55;;;;;;;12.23;8.70;;;18.00;99.90;;;;;;4918359;29;20450;-75
2023/06/20 01:54:27;;;;;;;13.50;8.77;;;17.90;99.90;;;;;;4936302;29;20044;-74
2023/06/20 01:56:59;;;;;;;14.25;8.88;;;17.80;99.90;;;;;;4936016;29;20067;-76
2023/06/20 01:59:27;;;;;;;13.85;8.18;;;17.90;99.90;;;;;;4934809;29;20465;-75
2023/06/20 02:01:56;;;;;;;11.70;7.72;;;18.00;99.90;;;;;;4935472;29;20046;-75
2023/06/20 02:04:34;;;;;;;11.75;7.82;;;17.90;99.90;;;;;;4923041;29;20115;-75
2023/06/20 02:07:03;;;;;;;14.13;7.72;;;17.70;99.90;;;;;;4935016;29;20049;-74
2023/06/20 02:09:34;;;;;;;13.48;8.40;;;17.70;99.90;;;;;;4942782;29;20114;-75
2023/06/20 02:12:03;;;;;;;14.00;7.97;;;17.70;99.90;;;;;;4938674;29;20056;-75
2023/06/20 02:14:31;;;;;;;11.32;7.72;;;17.70;99.90;;;;;;4902920;29;20055;-75
2023/06/20 02:17:00;;;;;;;10.30;7.65;;;17.80;99.90;;;;;;4934912;29;20486;-75
2023/06/20 02:19:31;;;;;;;14.30;8.63;;;17.70;99.90;;;;;;4945295;29;20050;-76
2023/06/20 02:22:03;;;;;;;11.57;8.68;;;17.70;99.90;;;;;;4903215;29;20571;-75
2023/06/20 02:24:33;;;;;;;13.15;8.85;;;17.80;99.90;;;;;;4934245;29;20071;-75
2023/06/20 02:27:02;;;;;;;12.40;8.05;;;17.80;99.90;;;;;;4934006;29;20094;-75
2023/06/20 02:29:34;;;;;;;13.65;8.15;;;17.80;99.90;;;;;;4933931;29;20533;-75
2023/06/20 02:32:03;;;;;;;14.30;8.30;;;17.80;99.90;;;;;;4934871;29;20048;-75
2023/06/20 02:34:33;;;;;;;12.30;8.52;;;17.80;99.90;;;;;;4916925;29;20062;-75
2023/06/20 02:37:03;;;;;;;16.25;8.30;;;17.80;99.90;;;;;;4934506;29;20389;-74
2023/06/20 02:39:31;;;;;;;12.15;8.20;;;17.50;99.90;;;;;;4934026;29;20091;-74
2023/06/20 02:41:59;;;;;;;11.43;7.85;;;17.30;99.90;;;;;;4919916;29;20063;-75
2023/06/20 02:44:27;;;;;;;16.92;8.70;;;17.30;99.90;;;;;;4939948;28;20048;-75
2023/06/20 02:47:33;;;;;;;13.73;8.73;;;17.30;99.90;;;;;;4902612;29;20092;-74
2023/06/20 02:50:29;;;;;;;11.07;7.70;;;17.30;99.90;;;;;;4927487;29;20379;-74
2023/06/20 02:53:14;;;;;;;12.85;8.50;;;17.20;99.90;;;;;;4917901;29;20044;-75
2023/06/20 02:55:58;;;;;;;14.10;8.65;;;17.00;99.90;;;;;;4928122;29;20134;-76
2023/06/20 02:58:31;;;;;;;11.02;8.50;;;17.10;99.90;;;;;;4903409;29;20054;-75
2023/06/20 03:01:00;;;;;;;14.90;9.43;;;17.20;99.90;;;;;;4918656;29;20395;-76
2023/06/20 03:03:40;;;;;;;16.55;9.85;;;17.30;99.90;;;;;;4917866;29;20052;-75
2023/06/20 03:06:10;;;;;;;19.67;9.32;;;17.10;99.90;;;;;;4906181;29;20163;-75
2023/06/20 03:08:39;;;;;;;;;;;17.20;99.90;;;;;;4918396;29;20079;-74
2023/06/20 03:11:08;;;;;;;17.08;9.05;;;17.40;99.90;;;;;;4917986;29;19994;-74
2023/06/20 03:13:35;;;;;;;12.88;8.60;;;17.20;99.90;;;;;;4930497;29;20040;-73
2023/06/20 03:16:04;;;;;;;16.05;9.30;;;17.20;99.90;;;;;;4918819;29;20044;-75
2023/06/20 03:18:32;;;;;;;12.68;9.00;;;17.20;99.90;;;;;;4923022;29;20051;-74
2023/06/20 03:20:59;;;;;;;11.88;9.00;;;17.20;99.90;;;;;;4927242;29;20406;-73
2023/06/20 03:23:26;;;;;;;20.23;9.95;;;17.40;99.90;;;;;;4918330;29;20103;-74
2023/06/20 03:25:54;;;;;;;12.05;8.70;;;17.60;99.90;;;;;;4917488;29;20509;-75
2023/06/20 03:28:22;;;;;;;13.90;9.25;;;17.50;99.90;;;;;;4921918;29;20092;-75
2023/06/20 03:30:49;;;;;;;16.85;10.48;;;17.40;99.90;;;;;;4908588;29;20052;-74
2023/06/20 03:33:16;;;;;;;12.68;9.75;;;17.30;99.90;;;;;;4929873;29;20040;-75
2023/06/20 03:35:44;;;;;;;14.05;8.98;;;17.30;99.90;;;;;;4919166;29;20044;-75
2023/06/20 03:38:12;;;;;;;16.05;8.50;;;17.40;99.90;;;;;;4918350;29;20404;-76
2023/06/20 03:40:39;;;;;;;16.08;9.98;;;17.40;99.90;;;;;;4917410;29;20119;-75
2023/06/20 03:43:06;;;;;;;15.00;9.23;;;17.60;99.90;;;;;;4931329;29;20062;-76
2023/06/20 03:45:34;;;;;;;15.57;8.90;;;17.60;99.90;;;;;;4917794;29;20088;-75
2023/06/20 03:48:01;;;;;;;13.35;9.57;;;17.50;99.90;;;;;;4931550;29;20055;-74
2023/06/20 03:50:28;;;;;;;15.65;9.02;;;17.40;99.90;;;;;;4951438;29;20075;-74
2023/06/20 03:52:56;;;;;;;14.90;9.30;;;17.20;99.90;;;;;;4918979;29;20116;-74
2023/06/20 03:55:23;;;;;;;10.95;8.18;;;17.30;99.90;;;;;;4915557;29;20123;-74
2023/06/20 03:57:51;;;;;;;16.35;10.05;;;17.10;99.90;;;;;;4918129;29;20075;-74
2023/06/20 04:00:18;;;;;;;12.93;9.60;;;17.00;99.90;;;;;;4918414;29;20111;-75
2023/06/20 04:02:49;;;;;;;12.23;8.80;;;17.10;99.90;;;;;;4918528;29;20048;-76
2023/06/20 04:05:19;;;;;;;15.05;9.70;;;17.30;99.90;;;;;;4917375;29;20383;-76
2023/06/20 04:07:47;;;;;;;16.65;9.13;;;17.30;99.90;;;;;;4935555;29;20075;-75
2023/06/20 04:10:14;;;;;;;14.77;9.15;;;17.50;99.90;;;;;;4923660;29;20040;-76
2023/06/20 04:12:43;;;;;;;15.88;9.85;;;17.70;99.90;;;;;;4918821;29;20073;-75
2023/06/20 04:15:10;;;;;;;14.27;9.57;;;17.60;99.90;;;;;;4919187;29;20048;-75
2023/06/20 04:22:06;;;;;;;14.10;8.98;;;17.80;99.90;;;;;;4905032;29;20479;-74
2023/06/20 04:24:33;;;;;;;14.05;9.48;;;17.80;99.90;;;;;;4925831;29;20047;-75
2023/06/20 04:27:02;;;;;;;14.88;9.07;;;17.80;99.90;;;;;;4917548;29;20402;-76
2023/06/20 04:29:29;;;;;;;14.10;10.00;;;17.90;99.90;;;;;;4917940;29;20059;-76
2023/06/20 04:31:58;;;;;;;15.75;8.80;;;17.80;99.90;;;;;;4917947;29;20814;-75
2023/06/20 04:34:25;;;;;;;15.02;9.98;;;17.80;99.90;;;;;;4918504;29;20590;-75
2023/06/20 04:36:52;;;;;;;16.45;9.23;;;17.90;99.90;;;;;;4915364;29;20074;-75
2023/06/20 04:39:20;;;;;;;12.05;8.95;;;17.80;99.90;;;;;;4950352;23;20051;-74
2023/06/20 04:41:50;;;;;;;15.73;9.10;;;17.80;99.90;;;;;;4920735;29;20048;-76
2023/06/20 04:44:17;;;;;;;12.57;9.00;;;18.20;99.90;;;;;;4929965;29;20055;-76
2023/06/20 04:46:44;;;;;;;13.98;8.77;;;18.20;99.90;;;;;;4932018;29;20055;-74
2023/06/20 04:49:12;;;;;;;13.10;8.18;;;18.40;99.90;;;;;;4946188;29;20052;-75
2023/06/20 04:51:42;;;;;;;12.35;8.32;;;18.30;99.90;;;;;;5355819;23;20046;-75
2023/06/20 04:54:09;;;;;;;13.10;8.38;;;18.30;99.90;;;;;;4898243;29;20118;-74
2023/06/20 04:56:40;;;;;;;63.28;36.20;;;18.40;99.90;;;;;;4910275;29;20582;-75
2023/06/20 04:59:38;;;;;;;32.30;22.23;;;18.70;99.90;;;;;;4906624;29;20056;-74
2023/06/20 05:03:19;;;;;;;13.82;10.30;;;18.70;99.90;;;;;;4883621;29;20391;-76
2023/06/20 05:05:50;;;;;;;16.65;9.77;;;18.50;99.90;;;;;;4886592;29;20096;-75
2023/06/20 05:08:18;;;;;;;14.70;8.50;;;18.60;99.90;;;;;;4896668;29;20550;-75
2023/06/20 05:10:49;;;;;;;15.50;8.43;;;18.70;99.90;;;;;;4903793;29;20565;-76
2023/06/20 05:13:22;;;;;;;14.43;9.02;;;18.80;99.90;;;;;;4896609;29;20113;-76
2023/06/20 05:15:52;;;;;;;13.88;9.27;;;18.80;99.90;;;;;;4899657;29;20113;-75
2023/06/20 05:18:21;;;;;;;15.48;8.95;;;18.90;99.90;;;;;;4892130;29;20041;-74
2023/06/20 05:20:50;;;;;;;15.55;9.13;;;18.80;99.90;;;;;;4887149;29;20492;-75
2023/06/20 05:23:18;;;;;;;12.85;9.20;;;18.80;99.90;;;;;;4895602;29;20056;-77
2023/06/20 05:25:49;;;;;;;17.52;12.55;;;18.80;99.90;;;;;;4902256;29;20044;-75
2023/06/20 05:28:55;;;;;;;80.22;53.72;;;18.80;99.90;;;;;;4915230;29;20414;-75
2023/06/20 05:31:24;;;;;;;36.92;24.20;;;18.90;99.90;;;;;;4908310;29;20044;-74
2023/06/20 05:33:54;;;;;;;33.85;24.02;;;18.90;99.90;;;;;;4920598;29;20048;-75
2023/06/20 05:39:48;;;;;;;28.08;15.15;;;18.80;99.90;;;;;;5057166;23;20056;-77
2023/06/20 05:42:17;;;;;;;24.08;15.65;;;19.10;99.90;;;;;;4913284;29;20458;-79
2023/06/20 05:44:46;;;;;;;55.03;34.08;;;19.10;99.90;;;;;;4922315;29;20048;-77
2023/06/20 05:47:38;;;;;;;155.82;97.10;;;19.10;99.90;;;;;;4917319;29;20055;-76
2023/06/20 05:50:07;;;;;;;30.17;20.80;;;19.30;99.90;;;;;;4926079;29;20166;-81
2023/06/20 05:52:35;;;;;;;18.10;11.98;;;19.40;99.90;;;;;;4886952;29;20044;-75
2023/06/20 05:55:04;;;;;;;24.42;13.57;;;19.40;99.90;;;;;;4920661;29;20048;-75
2023/06/20 05:57:31;;;;;;;13.02;9.75;;;19.30;99.90;;;;;;4916419;29;20040;-76
2023/06/20 06:01:10;;;;;;;17.27;11.15;;;19.30;99.90;;;;;;4889703;29;20060;-76
2023/06/20 06:05:00;;;;;;;18.33;10.90;;;19.40;99.90;;;;;;4917073;29;20193;-77
2023/06/20 06:07:37;;;;;;;15.00;9.73;;;19.70;99.90;;;;;;4907677;29;20064;-76
2023/06/20 06:10:09;;;;;;;17.00;9.93;;;19.80;99.90;;;;;;4913382;29;20052;-76
2023/06/20 06:13:11;;;;;;;14.50;10.75;;;19.80;99.90;;;;;;4913809;29;20040;-76
2023/06/20 06:19:25;;;;;;;20.40;11.52;;;19.90;99.90;;;;;;4910335;29;20059;-76
2023/06/20 06:21:52;;;;;;;23.77;11.35;;;20.10;99.90;;;;;;4923256;29;20035;-76
2023/06/20 06:24:26;;;;;;;15.63;10.95;;;20.20;99.90;;;;;;4900822;29;20059;-75
2023/06/20 06:26:55;;;;;;;15.52;9.88;;;20.20;99.90;;;;;;4935723;29;20049;-76
2023/06/20 06:29:37;;;;;;;13.98;9.98;;;20.20;99.90;;;;;;4977060;23;20466;-79
2023/06/20 06:32:20;;;;;;;16.50;10.13;;;20.20;99.90;;;;;;4906085;29;20032;-75
2023/06/20 06:34:49;;;;;;;12.95;9.27;;;20.20;99.90;;;;;;4922374;29;20498;-76
2023/06/20 06:40:29;;;;;;;14.77;9.93;;;20.50;99.90;;;;;;4918185;29;20103;-75
2023/06/20 06:43:09;;;;;;;119.20;71.18;;;20.50;99.90;;;;;;4923048;29;20040;-74
2023/06/20 06:45:40;;;;;;;59.60;38.55;;;20.60;99.90;;;;;;4935168;29;20067;-76
2023/06/20 06:48:08;;;;;;;19.52;13.60;;;20.70;99.90;;;;;;4924356;29;20095;-77
2023/06/20 06:50:35;;;;;;;17.80;11.38;;;20.80;99.90;;;;;;4924341;29;20107;-79
2023/06/20 06:53:03;;;;;;;17.30;10.82;;;20.80;99.90;;;;;;4920233;29;20035;-79
2023/06/20 06:55:30;;;;;;;19.75;10.45;;;20.90;99.90;;;;;;4919863;29;20051;-75
2023/06/20 06:57:57;;;;;;;16.63;10.07;;;21.00;99.90;;;;;;4920336;29;20126;-75
2023/06/20 07:00:26;;;;;;;15.38;10.15;;;21.10;99.90;;;;;;4925826;29;20067;-77
2023/06/20 07:02:53;;;;;;;17.10;10.75;;;21.00;99.90;;;;;;4893550;29;20056;-76
2023/06/20 07:05:21;;;;;;;17.48;9.98;;;21.00;99.90;;;;;;4922551;29;20391;-74
2023/06/20 07:07:48;;;;;;;13.93;8.98;;;21.10;99.90;;;;;;4927840;29;20040;-76
2023/06/20 07:10:16;;;;;;;15.70;9.18;;;21.20;99.90;;;;;;4923610;29;20048;-75
2023/06/20 07:13:06;;;;;;;17.10;9.43;;;21.10;99.90;;;;;;4902617;29;20139;-73
2023/06/20 07:15:34;;;;;;;16.40;9.63;;;21.10;99.90;;;;;;4920912;29;20071;-75
2023/06/20 07:18:02;;;;;;;14.18;9.80;;;21.30;99.90;;;;;;4925227;29;20044;-78
2023/06/20 07:20:29;;;;;;;15.68;9.30;;;21.40;99.90;;;;;;4928790;29;20046;-76
2023/06/20 07:22:57;;;;;;;17.02;9.55;;;21.40;99.90;;;;;;4930092;29;20068;-76
2023/06/20 07:25:24;;;;;;;13.82;9.65;;;21.40;99.90;;;;;;4934404;29;20048;-74
2023/06/20 07:27:53;;;;;;;17.27;9.80;;;21.50;99.90;;;;;;4924124;29;20044;-77
2023/06/20 07:30:22;;;;;;;14.10;9.27;;;21.40;99.90;;;;;;4902795;29;20042;-78
2023/06/20 07:32:49;;;;;;;17.90;10.40;;;21.30;99.90;;;;;;4920921;29;20115;-75
2023/06/20 07:35:17;;;;;;;18.25;9.63;;;21.40;99.90;;;;;;4924253;29;20103;-75
2023/06/20 07:37:48;;;;;;;13.55;9.60;;;21.60;99.90;;;;;;4922324;29;20133;-76
2023/06/20 07:41:51;;;;;;;16.00;9.68;;;21.70;99.90;;;;;;4850815;29;20087;-75
2023/06/20 07:45:24;;;;;;;13.63;9.00;;;21.90;99.90;;;;;;4780582;29;20049;-77
2023/06/20 07:51:33;;;;;;;12.57;9.20;;;21.90;99.90;;;;;;4786532;29;20042;-79
2023/06/20 07:54:00;;;;;;;14.77;9.20;;;22.10;99.90;;;;;;4855503;29;20081;-74
2023/06/20 07:57:00;;;;;;;16.50;9.10;;;22.20;99.90;;;;;;4831442;29;20061;-79
2023/06/20 07:59:48;;;;;;;14.68;9.10;;;22.30;99.90;;;;;;4843758;29;20057;-77
2023/06/20 08:02:43;;;;;;;13.70;9.35;;;22.40;99.90;;;;;;4819561;29;20176;-76
2023/06/20 08:05:11;;;;;;;18.67;9.52;;;22.50;99.90;;;;;;4834987;29;20046;-75
2023/06/20 08:07:39;;;;;;;13.63;8.65;;;22.60;99.90;;;;;;4845802;29;20053;-78
2023/06/20 08:14:05;;;;;;;13.32;9.00;;;22.60;99.90;;;;;;4872407;29;20352;-78
2023/06/20 08:16:41;;;;;;;31.42;21.63;;;22.80;99.90;;;;;;4835332;29;20110;-76
2023/06/20 08:20:34;;;;;;;35.10;23.38;;;22.90;99.90;;;;;;4918617;29;20066;-77
2023/06/20 08:23:45;;;;;;;38.78;24.63;;;22.90;99.90;;;;;;4892754;29;20502;-78
2023/06/20 08:30:54;;;;;;;18.02;10.13;;;23.40;99.90;;;;;;4881951;29;20033;-78
2023/06/20 08:44:56;;;;;;;12.98;7.97;;;23.80;99.90;;;;;;4881842;29;20052;-78
2023/06/20 08:47:25;;;;;;;16.30;8.82;;;24.10;99.40;;;;;;4871696;29;20120;-78
2023/06/20 08:54:22;;;;;;;12.13;8.40;;;24.00;98.90;;;;;;4881486;29;20045;-79
2023/06/20 08:56:50;;;;;;;10.57;7.90;;;24.00;98.60;;;;;;4854661;29;20049;-75
2023/06/20 08:59:22;;;;;;;11.48;8.20;;;23.90;98.60;;;;;;4877729;29;20049;-79
2023/06/20 09:01:58;;;;;;;11.38;7.70;;;24.00;98.90;;;;;;4872715;29;20574;-78
2023/06/20 09:05:06;;;;;;;17.15;7.68;;;24.10;98.30;;;;;;4846848;29;20054;-78
2023/06/20 09:12:05;;;;;;;14.43;8.65;;;24.50;97.90;;;;;;4848926;29;20057;-79
2023/06/20 09:14:34;;;;;;;12.23;7.22;;;24.60;97.30;;;;;;4879208;29;20051;-79
2023/06/20 09:17:25;;;;;;;;;;;;;;;;;;;;;
2023/06/20 09:19:53;;;;;;;14.35;9.10;;;24.60;97.50;;;;;;4946315;29;20070;-78
2023/06/20 09:23:35;;;;;;;14.55;8.80;;;24.70;97.80;;;;;;4840750;29;20895;-79
2023/06/20 09:33:03;;;;;;;12.32;6.85;;;24.80;96.40;;;;;;4937608;29;20036;-78
2023/06/20 09:35:45;;;;;;;10.80;7.65;;;25.00;95.90;;;;;;4932685;29;20059;-76
2023/06/20 09:38:44;;;;;;;11.85;7.32;;;25.10;94.80;;;;;;4936091;29;20512;-80
2023/06/20 09:41:52;;;;;;;10.73;7.47;;;25.20;94.20;;;;;;4866784;29;20100;-78
2023/06/20 09:45:04;;;;;;;17.45;7.70;;;25.40;94.30;;;;;;4874935;29;20057;-80
2023/06/20 09:48:14;;;;;;;13.35;7.13;;;25.60;94.10;;;;;;4867007;29;20066;-78
2023/06/20 09:50:45;;;;;;;12.00;8.30;;;25.80;93.60;;;;;;4867590;29;20108;-79
2023/06/20 09:53:22;;;;;;;10.43;6.68;;;25.90;93.20;;;;;;4943145;28;20047;-79
2023/06/20 09:57:33;;;;;;;13.10;7.28;;;25.80;92.60;;;;;;4901626;29;20063;-80
2023/06/20 10:00:27;;;;;;;11.40;6.70;;;25.80;91.50;;;;;;4915434;28;20043;-79
2023/06/20 10:03:32;;;;;;;8.48;6.22;;;26.00;91.30;;;;;;4946610;29;20098;-79
2023/06/20 10:06:10;;;;;;;9.68;6.68;;;26.20;90.50;;;;;;4943137;28;20409;-81
2023/06/20 10:09:01;;;;;;;11.27;6.68;;;26.20;88.70;;;;;;4927642;29;20102;-80
2023/06/20 10:11:31;;;;;;;12.57;7.20;;;26.30;89.40;;;;;;4939789;29;20367;-80
2023/06/20 10:14:05;;;;;;;9.82;7.03;;;26.40;89.70;;;;;;4944819;28;20310;-76
2023/06/20 10:16:34;;;;;;;13.07;7.40;;;26.50;89.80;;;;;;4935829;29;20486;-78
2023/06/20 10:19:19;;;;;;;9.98;6.55;;;26.90;90.40;;;;;;4938423;29;20040;-78
2023/06/20 10:22:01;;;;;;;11.80;7.15;;;27.00;88.80;;;;;;4923464;29;20441;-80
2023/06/20 10:24:30;;;;;;;;;;;27.10;87.30;;;;;;4904604;29;20052;-78
2023/06/20 10:27:03;;;;;;;10.07;6.55;;;27.10;86.20;;;;;;4921751;29;19927;-76
2023/06/20 10:29:41;;;;;;;9.27;6.15;;;27.20;84.50;;;;;;4922329;29;20051;-77
2023/06/20 10:32:12;;;;;;;9.13;6.00;;;27.30;84.10;;;;;;4921526;29;20052;-74
2023/06/20 10:34:45;;;;;;;10.18;7.32;;;27.30;85.00;;;;;;4930058;29;20040;-77
2023/06/20 10:38:40;;;;;;;9.63;6.70;;;27.30;83.90;;;;;;4908756;29;20126;-79
2023/06/20 10:41:35;;;;;;;11.85;7.28;;;27.50;85.00;;;;;;4911958;29;20056;-76
2023/06/20 10:44:05;;;;;;;8.18;5.72;;;27.80;84.50;;;;;;4915775;29;20044;-81
2023/06/20 10:51:02;;;;;;;11.18;6.53;;;28.00;83.40;;;;;;4912703;29;20131;-78
2023/06/20 10:53:32;;;;;;;9.85;5.97;;;28.20;81.90;;;;;;4922214;29;20044;-79
2023/06/20 10:56:03;;;;;;;9.57;6.38;;;28.20;79.40;;;;;;4934473;29;20373;-75
2023/06/20 10:58:30;;;;;;;12.05;6.53;;;28.00;79.10;;;;;;4920669;29;20040;-77
2023/06/20 11:00:59;;;;;;;9.73;6.43;;;28.20;80.00;;;;;;4925494;29;20039;-77
2023/06/20 11:03:30;;;;;;;8.63;5.95;;;28.00;77.20;;;;;;4928655;29;20554;-79
2023/06/20 11:06:23;;;;;;;9.23;5.95;;;27.90;77.10;;;;;;4903452;29;20067;-77
2023/06/20 11:12:08;;;;;;;10.45;5.32;;;28.40;78.40;;;;;;4922902;29;20047;-75
2023/06/20 11:14:40;;;;;;;12.15;6.07;;;28.60;77.40;;;;;;4921639;29;20041;-77
2023/06/20 11:17:10;;;;;;;10.35;5.82;;;28.60;76.50;;;;;;4916916;29;20116;-78
2023/06/20 11:21:12;;;;;;;10.27;5.93;;;28.70;75.70;;;;;;4870370;29;20790;-75
2023/06/20 11:24:54;;;;;;;10.73;5.57;;;28.70;76.10;;;;;;4843374;29;20059;-77
2023/06/20 11:27:49;;;;;;;10.18;5.80;;;28.90;75.10;;;;;;4902606;29;20076;-78
2023/06/20 11:30:23;;;;;;;10.00;6.40;;;29.00;76.00;;;;;;4908236;29;20041;-80
2023/06/20 11:33:32;;;;;;;10.80;6.00;;;29.10;74.30;;;;;;4862650;29;20067;-79
2023/06/20 11:37:07;;;;;;;17.55;8.40;;;29.20;75.00;;;;;;4911445;29;20106;-79
2023/06/20 11:40:53;;;;;;;12.13;7.32;;;29.10;74.40;;;;;;4893178;29;20117;-77
2023/06/20 11:43:42;;;;;;;13.27;6.70;;;29.40;74.50;;;;;;4898996;29;20065;-77
2023/06/20 11:46:12;;;;;;;13.07;7.47;;;29.70;75.10;;;;;;4922145;29;20466;-78
2023/06/20 11:49:06;;;;;;;9.48;6.35;;;29.50;73.40;;;;;;4913351;29;20047;-81
2023/06/20 11:51:43;;;;;;;10.70;6.25;;;29.30;72.40;;;;;;4924245;29;20407;-76
2023/06/20 11:54:17;;;;;;;12.80;6.88;;;29.40;72.10;;;;;;4915721;29;20131;-76
2023/06/20 11:57:27;;;;;;;10.63;6.75;;;29.50;73.00;;;;;;4940233;29;20059;-86
2023/06/20 12:01:04;;;;;;;9.52;6.78;;;29.70;72.80;;;;;;4890785;29;20091;-80
2023/06/20 12:04:12;;;;;;;12.43;6.57;;;29.80;72.30;;;;;;4925708;29;20423;-76
2023/06/20 12:06:42;;;;;;;11.93;6.82;;;30.30;72.00;;;;;;4916155;29;20157;-79
2023/06/20 12:09:16;;;;;;;13.25;8.07;;;30.30;72.10;;;;;;4912911;29;20055;-77
2023/06/20 12:11:52;;;;;;;10.73;7.25;;;30.20;72.00;;;;;;4913535;29;20103;-83
2023/06/20 12:14:23;;;;;;;12.40;6.60;;;30.30;71.10;;;;;;4926765;29;20064;-77
2023/06/20 12:16:51;;;;;;;11.57;6.28;;;30.20;71.20;;;;;;4928309;29;20510;-78
2023/06/20 12:19:20;;;;;;;10.52;7.55;;;30.50;72.30;;;;;;4935921;29;20092;-82
2023/06/20 12:22:22;;;;;;;9.07;6.72;;;30.40;71.60;;;;;;4928994;29;20040;-84
2023/06/20 12:24:52;;;;;;;9.90;6.35;;;30.50;71.30;;;;;;4928295;29;20143;-83
2023/06/20 12:27:34;;;;;;;10.70;6.50;;;30.70;71.20;;;;;;4890790;29;20045;-81
2023/06/20 12:30:02;;;;;;;12.35;7.07;;;30.60;70.20;;;;;;4920013;29;20068;-76
2023/06/20 12:32:31;;;;;;;12.80;7.32;;;30.80;71.00;;;;;;4902487;29;20052;-79
2023/06/20 12:38:11;;;;;;;10.30;6.80;;;30.80;71.20;;;;;;4915207;29;20485;-78
2023/06/20 12:40:44;;;;;;;9.02;6.55;;;30.70;70.10;;;;;;4934597;29;20044;-82
2023/06/20 12:44:03;;;;;;;11.38;7.22;;;30.40;70.50;;;;;;4912136;29;20043;-78
2023/06/20 12:46:32;;;;;;;10.07;6.57;;;30.10;71.80;;;;;;4926099;29;20044;-77
2023/06/20 12:49:00;;;;;;;11.60;6.78;;;30.30;72.10;;;;;;4926113;29;20036;-76
2023/06/20 12:51:27;;;;;;;12.20;6.97;;;30.60;70.20;;;;;;4924017;29;20028;-78
2023/06/20 12:54:20;;;;;;;11.27;6.38;;;30.80;70.30;;;;;;4930588;29;20041;-77
2023/06/20 12:56:49;;;;;;;11.88;6.03;;;31.30;67.40;;;;;;4926551;29;20048;-74
2023/06/20 12:59:17;;;;;;;10.65;6.65;;;31.40;68.90;;;;;;4919410;29;20418;-79
2023/06/20 13:01:53;;;;;;;10.35;6.55;;;31.30;68.20;;;;;;4925606;29;20095;-84
2023/06/20 13:08:12;;;;;;;9.33;6.67;;;31.20;66.50;;;;;;4925734;29;20111;-79
2023/06/20 13:10:46;;;;;;;8.73;6.22;;;31.10;68.20;;;;;;4926110;29;20059;-76
2023/06/20 13:14:33;;;;;;;;;;;;;;;;;;;;;
2023/06/20 13:17:30;;;;;;;6.88;4.55;;;31.50;62.90;;;;;;4919399;29;20470;-79
2023/06/20 13:20:00;;;;;;;8.95;5.53;;;31.70;63.80;;;;;;4928707;29;20104;-83
2023/06/20 13:31:37;;;;;;;6.93;5.13;;;31.60;61.50;;;;;;4850758;29;20118;-79
2023/06/20 13:34:31;;;;;;;8.60;4.82;;;32.00;59.20;;;;;;4908436;29;20056;-78
2023/06/20 13:36:59;;;;;;;7.22;5.43;;;32.20;58.10;;;;;;4908947;29;20118;-78
2023/06/20 13:39:30;;;;;;;7.32;5.10;;;32.20;60.20;;;;;;4919842;29;20044;-76
2023/06/20 13:41:59;;;;;;;8.82;5.47;;;32.20;59.50;;;;;;4932439;29;20035;-82
2023/06/20 13:44:27;;;;;;;7.53;5.18;;;32.30;59.90;;;;;;4897758;29;20071;-80
2023/06/20 13:46:56;;;;;;;7.95;4.95;;;32.20;55.80;;;;;;4921818;29;20046;-78
2023/06/20 13:49:25;;;;;;;8.32;5.38;;;32.00;57.90;;;;;;4920866;29;20462;-82
2023/06/20 13:51:55;;;;;;;7.07;5.13;;;32.40;58.00;;;;;;4924062;29;20070;-81
2023/06/20 13:54:58;;;;;;;7.80;4.43;;;32.60;58.90;;;;;;4906013;29;20139;-79
2023/06/20 13:57:27;;;;;;;7.63;5.22;;;32.60;60.10;;;;;;4921250;29;20431;-77
2023/06/20 13:59:54;;;;;;;8.90;5.88;;;32.80;59.20;;;;;;4914273;29;20104;-77
2023/06/20 14:02:23;;;;;;;7.90;4.95;;;32.80;58.00;;;;;;4894543;29;20046;-81
2023/06/20 14:04:53;;;;;;;6.88;4.88;;;32.80;58.20;;;;;;4894648;29;20056;-78
2023/06/20 14:07:22;;;;;;;8.23;4.70;;;32.80;57.30;;;;;;4889625;29;20123;-77
2023/06/20 14:09:50;;;;;;;10.10;5.88;;;32.90;56.90;;;;;;4923836;29;20044;-76
2023/06/20 14:12:22;;;;;;;6.20;4.30;;;32.80;58.10;;;;;;4924029;29;20124;-78
2023/06/20 14:14:54;;;;;;;10.95;5.78;;;32.80;57.70;;;;;;4928826;29;20063;-80
2023/06/20 14:17:33;;;;;;;18.35;7.20;;;33.10;57.50;;;;;;4893658;29;20040;-75
2023/06/20 14:20:02;;;;;;;10.82;5.82;;;33.10;58.20;;;;;;4916392;29;20067;-77
2023/06/20 14:22:39;;;;;;;7.68;4.78;;;33.20;57.10;;;;;;4894428;29;20058;-76
2023/06/20 14:25:36;;;;;;;21.35;8.00;;;32.40;54.70;;;;;;4887617;29;20044;-76
2023/06/20 14:28:04;;;;;;;16.83;7.53;;;32.10;58.00;;;;;;4922951;29;20047;-79
2023/06/20 14:30:34;;;;;;;15.35;7.65;;;32.80;57.30;;;;;;4918983;29;20046;-76
2023/06/20 14:33:03;;;;;;;11.30;6.80;;;33.30;57.60;;;;;;4924839;29;20056;-81
2023/06/20 14:35:55;;;;;;;13.68;6.72;;;33.40;56.30;;;;;;4909496;29;20048;-81
2023/06/20 14:38:39;;;;;;;9.88;5.80;;;32.80;56.60;;;;;;4913892;29;20472;-76
2023/06/20 14:41:07;;;;;;;11.75;6.03;;;32.90;56.00;;;;;;4922806;29;20446;-81
2023/06/20 14:43:44;;;;;;;7.38;5.03;;;33.20;56.20;;;;;;4906107;29;20040;-80
2023/06/20 14:46:13;;;;;;;8.38;5.70;;;33.60;55.40;;;;;;4913186;29;20059;-78
2023/06/20 14:48:42;;;;;;;9.32;5.80;;;34.20;55.80;;;;;;4926398;29;20394;-80
2023/06/20 14:51:21;;;;;;;11.05;6.82;;;35.10;54.60;;;;;;4903844;29;20528;-77
2023/06/20 14:54:10;;;;;;;10.00;7.30;;;36.30;53.50;;;;;;4910964;29;20095;-82
2023/06/20 14:56:39;;;;;;;10.50;6.35;;;38.00;52.60;;;;;;4918343;29;20119;-76
2023/06/20 14:59:06;;;;;;;8.25;5.50;;;38.90;51.40;;;;;;4925100;29;20044;-76
2023/06/20 15:01:34;;;;;;;9.02;5.93;;;38.90;51.10;;;;;;4931310;29;20359;-77
2023/06/20 15:04:04;;;;;;;12.98;6.40;;;38.40;51.10;;;;;;4925921;29;20040;-78
2023/06/20 15:06:34;;;;;;;9.68;6.32;;;38.70;51.40;;;;;;4900077;29;20044;-78
2023/06/20 15:09:05;;;;;;;8.98;6.13;;;39.30;51.20;;;;;;4907110;29;20156;-77